Orbital elements of COSMOS 1275 DEB
| Launched | 3 June 1981 |
| Flight ended | – |
| Launch site | Plesetsk Missile and Space Complex, Russia |
| Owner | Commonwealth of Independent States (former USSR) |
| NORAD ID | 14228 |
| Date fetched |
Epoch osculation |
Inc. [°] |
Ecc. | RA asc node [hr] |
Arg Peri. [°] |
Mean anom [°] |
Mean motion [rev/day] |
Abs. mag |
| Date fetched |
Epoch osculation |
Inc. [°] |
Ecc. | RA asc node [hr] |
Arg Peri. [°] |
Mean anom [°] |
Mean motion [rev/day] |
Abs. mag |
| 2026 May 03 17:57 | 2026 Apr 30 09:56:21 | 82.9627 | 0.00953 | 7.5006 | 75.5845 | 79.6656 | 13.85273 | – |
| 2026 May 02 17:57 | 2026 Apr 30 09:56:21 | 82.9627 | 0.00953 | 7.5006 | 75.5845 | 79.6656 | 13.85273 | – |
| 2026 May 01 17:56 | 2026 Apr 30 09:56:21 | 82.9627 | 0.00953 | 7.5006 | 75.5845 | 79.6656 | 13.85273 | – |
| 2026 Apr 30 17:56 | 2026 Apr 30 09:56:21 | 82.9627 | 0.00953 | 7.5006 | 75.5845 | 79.6656 | 13.85273 | – |
| 2026 Apr 29 17:57 | 2026 Apr 24 11:46:48 | 82.9625 | 0.00952 | 7.7974 | 92.0151 | 79.6656 | 13.85273 | – |
| 2026 Apr 28 17:56 | 2026 Apr 24 11:46:48 | 82.9625 | 0.00952 | 7.7974 | 92.0151 | 79.6656 | 13.85273 | – |
| 2026 Apr 27 17:58 | 2026 Apr 24 11:46:48 | 82.9625 | 0.00952 | 7.7974 | 92.0151 | 79.6656 | 13.85273 | – |
| 2026 Apr 26 17:58 | 2026 Apr 24 11:46:48 | 82.9625 | 0.00952 | 7.7974 | 92.0151 | 79.6656 | 13.85273 | – |
| 2026 Apr 25 17:58 | 2026 Apr 24 11:46:48 | 82.9625 | 0.00952 | 7.7974 | 92.0151 | 79.6656 | 13.85273 | – |
| 2026 Apr 24 17:59 | 2026 Apr 24 11:46:48 | 82.9625 | 0.00952 | 7.7974 | 92.0151 | 79.6656 | 13.85273 | – |
| 2026 Apr 23 17:57 | 2026 Apr 18 00:54:05 | 82.9633 | 0.00950 | 8.1208 | 110.0337 | 79.6656 | 13.85273 | – |
| 2026 Apr 22 17:57 | 2026 Apr 18 00:54:05 | 82.9633 | 0.00950 | 8.1208 | 110.0337 | 79.6656 | 13.85273 | – |
| 2026 Apr 21 17:57 | 2026 Apr 18 00:54:05 | 82.9633 | 0.00950 | 8.1208 | 110.0337 | 79.6656 | 13.85273 | – |
| 2026 Apr 20 17:57 | 2026 Apr 18 00:54:05 | 82.9633 | 0.00950 | 8.1208 | 110.0337 | 79.6656 | 13.85273 | – |
| 2026 Apr 19 17:58 | 2026 Apr 18 00:54:05 | 82.9633 | 0.00950 | 8.1208 | 110.0337 | 79.6656 | 13.85273 | – |
| 2026 Apr 18 17:56 | 2026 Apr 13 01:17:21 | 82.9636 | 0.00950 | 8.3704 | 123.9312 | 79.6656 | 13.85273 | – |
| 2026 Apr 16 17:57 | 2026 Apr 13 01:17:21 | 82.9636 | 0.00950 | 8.3704 | 123.9312 | 79.6656 | 13.85273 | – |
| 2026 Apr 14 17:57 | 2026 Apr 13 01:17:21 | 82.9636 | 0.00950 | 8.3704 | 123.9312 | 79.6656 | 13.85273 | – |
| 2026 Apr 13 17:57 | 2026 Apr 13 01:17:21 | 82.9636 | 0.00950 | 8.3704 | 123.9312 | 79.6656 | 13.85273 | – |
| 2026 Apr 12 17:57 | 2026 Apr 08 12:40:09 | 82.9640 | 0.00949 | 8.5971 | 136.5825 | 79.6656 | 13.85273 | – |
| 2026 Apr 11 17:57 | 2026 Apr 08 12:40:09 | 82.9640 | 0.00949 | 8.5971 | 136.5825 | 79.6656 | 13.85273 | – |
| 2026 Apr 10 17:58 | 2026 Apr 08 12:40:09 | 82.9640 | 0.00949 | 8.5971 | 136.5825 | 79.6656 | 13.85273 | – |
| 2026 Apr 09 18:01 | 2026 Apr 08 12:40:09 | 82.9640 | 0.00949 | 8.5971 | 136.5825 | 79.6656 | 13.85273 | – |
| 2026 Apr 08 17:57 | 2026 Apr 08 12:40:09 | 82.9640 | 0.00949 | 8.5971 | 136.5825 | 79.6656 | 13.85273 | – |
| 2026 Apr 07 17:57 | 2026 Mar 31 13:58:35 | 82.9651 | 0.00947 | 8.9951 | 158.6965 | 79.6656 | 13.85273 | – |
| 2026 Apr 06 17:57 | 2026 Mar 31 13:58:35 | 82.9651 | 0.00947 | 8.9951 | 158.6965 | 79.6656 | 13.85273 | – |